Time;durP1;ratioP1;P1;durP2;ratioP2;P2;SDS_P1;SDS_P2;PMS_P1;PMS_P2;Temp;Humidity;BMP_temperature;BMP_pressure;BME280_temperature;BME280_humidity;BME280_pressure;Samples;Min_cycle;Max_cycle;Signal;HPM_P1;HPM_P2
2023/08/11 05:03:06;;;;;;;6.20;4.03;;;19.10;99.90;;;;;;5977647;23;20503;-81
2023/08/11 05:05:33;;;;;;;9.73;4.60;;;19.10;99.90;;;;;;4989350;28;20440;-64
2023/08/11 05:08:01;;;;;;;8.83;5.07;;;19.20;99.90;;;;;;4992116;28;20448;-65
2023/08/11 05:10:27;;;;;;;11.80;4.80;;;19.30;99.90;;;;;;4995238;28;20508;-64
2023/08/11 05:12:54;;;;;;;6.10;5.30;;;19.30;99.90;;;;;;5005926;28;20439;-65
2023/08/11 05:15:21;;;;;;;6.67;4.43;;;19.40;99.90;;;;;;4999939;28;20839;-65
2023/08/11 05:17:48;;;;;;;9.93;4.37;;;19.30;99.90;;;;;;4989750;28;20494;-64
2023/08/11 05:20:16;;;;;;;6.27;3.93;;;19.40;99.90;;;;;;4989911;28;20470;-65
2023/08/11 05:22:44;;;;;;;6.70;4.40;;;19.50;99.90;;;;;;4991695;28;20657;-64
2023/08/11 05:25:11;;;;;;;6.37;3.83;;;19.60;99.90;;;;;;4988226;28;20453;-64
2023/08/11 05:27:38;;;;;;;9.17;5.37;;;19.60;99.90;;;;;;4988384;28;20490;-63
2023/08/11 05:30:07;;;;;;;11.57;4.60;;;19.60;99.90;;;;;;4989216;28;20462;-66
2023/08/11 05:32:34;;;;;;;6.27;4.10;;;19.70;99.90;;;;;;4982881;28;20528;-64
2023/08/11 05:35:01;;;;;;;9.27;4.80;;;19.70;99.90;;;;;;4983005;28;20849;-65
2023/08/11 05:37:29;;;;;;;4.77;4.13;;;19.70;99.90;;;;;;4985457;28;20527;-67
2023/08/11 05:39:56;;;;;;;6.80;4.53;;;19.60;99.90;;;;;;4980962;28;20476;-64
2023/08/11 05:42:23;;;;;;;6.53;4.80;;;19.60;99.90;;;;;;4987774;28;20782;-66
2023/08/11 05:44:50;;;;;;;6.77;4.43;;;19.70;99.90;;;;;;4991891;28;20925;-66
2023/08/11 05:47:17;;;;;;;7.40;5.10;;;19.80;99.90;;;;;;4984630;28;20476;-64
2023/08/11 05:49:44;;;;;;;5.60;4.80;;;19.90;99.90;;;;;;4994331;28;20471;-68
2023/08/11 05:52:12;;;;;;;7.73;4.90;;;19.90;99.90;;;;;;4981521;28;20525;-68
2023/08/11 05:54:40;;;;;;;6.67;5.00;;;20.10;99.90;;;;;;4984693;28;20460;-67
2023/08/11 05:57:07;;;;;;;7.17;4.47;;;20.10;99.90;;;;;;4980711;28;20446;-65
2023/08/11 05:59:33;;;;;;;6.17;5.57;;;20.20;99.90;;;;;;4978558;28;20474;-66
2023/08/11 06:02:00;;;;;;;7.23;4.50;;;20.30;99.90;;;;;;4986892;28;20444;-64
2023/08/11 06:04:27;;;;;;;8.50;5.40;;;20.20;99.90;;;;;;4985508;28;20461;-65
2023/08/11 06:06:54;;;;;;;7.80;6.10;;;20.20;99.90;;;;;;4981058;28;20581;-66
2023/08/11 06:09:22;;;;;;;6.60;5.67;;;20.10;99.90;;;;;;4978661;28;20477;-68
2023/08/11 06:11:50;;;;;;;6.77;5.00;;;20.20;99.90;;;;;;4982207;28;20451;-68
2023/08/11 06:14:17;;;;;;;6.93;5.10;;;20.30;99.90;;;;;;4986454;28;20455;-67
2023/08/11 06:16:44;;;;;;;5.23;4.70;;;20.40;99.90;;;;;;4983430;28;20471;-69
2023/08/11 06:19:10;;;;;;;6.53;3.93;;;20.70;99.90;;;;;;4979521;28;20471;-69
2023/08/11 06:21:38;;;;;;;8.80;4.30;;;20.90;99.90;;;;;;4985374;28;20820;-68
2023/08/11 06:24:05;;;;;;;8.00;4.73;;;21.10;99.90;;;;;;4985147;28;20458;-68
2023/08/11 06:26:32;;;;;;;10.63;4.47;;;21.20;99.90;;;;;;4980927;28;20477;-73
2023/08/11 06:29:01;;;;;;;5.87;4.23;;;21.40;99.90;;;;;;4987584;28;20472;-71
2023/08/11 06:31:28;;;;;;;9.67;5.30;;;21.50;99.90;;;;;;4984162;28;20500;-66
2023/08/11 06:33:54;;;;;;;12.83;6.57;;;21.70;99.90;;;;;;4985951;28;20452;-66
2023/08/11 06:36:21;;;;;;;7.90;4.77;;;21.80;99.90;;;;;;4981663;28;20534;-67
2023/08/11 06:38:48;;;;;;;6.80;4.47;;;21.90;99.90;;;;;;4985401;28;20451;-66
2023/08/11 06:41:15;;;;;;;6.73;4.50;;;21.90;99.90;;;;;;4983307;28;20455;-67
2023/08/11 06:43:41;;;;;;;10.83;5.30;;;22.00;99.90;;;;;;4978862;28;20445;-67
2023/08/11 06:46:10;;;;;;;7.93;5.00;;;22.10;99.90;;;;;;4986076;28;20459;-66
2023/08/11 06:48:36;;;;;;;8.03;4.87;;;22.10;99.90;;;;;;4984048;28;20438;-66
2023/08/11 06:51:03;;;;;;;5.93;5.07;;;22.20;99.90;;;;;;4984740;28;20545;-67
2023/08/11 06:53:30;;;;;;;6.63;5.60;;;22.40;99.90;;;;;;4987165;28;20857;-67
2023/08/11 06:55:57;;;;;;;8.43;5.13;;;22.70;99.90;;;;;;4994867;28;20528;-68
2023/08/11 06:58:23;;;;;;;6.13;4.50;;;22.80;99.90;;;;;;4998523;28;20536;-66
2023/08/11 07:00:50;;;;;;;12.10;4.50;;;23.20;99.90;;;;;;5005255;28;20463;-66
2023/08/11 07:03:18;;;;;;;5.40;4.77;;;23.70;99.90;;;;;;4995670;28;20804;-67
2023/08/11 07:05:45;;;;;;;4.70;4.03;;;24.30;99.90;;;;;;4991137;28;20440;-67
2023/08/11 07:08:12;;;;;;;4.63;3.93;;;25.10;99.90;;;;;;4993933;28;20490;-67
2023/08/11 07:10:40;;;;;;;5.50;4.10;;;26.10;99.90;;;;;;4993077;28;20468;-67
2023/08/11 07:13:06;;;;;;;18.90;16.93;;;26.70;99.30;;;;;;4994397;28;20826;-67
2023/08/11 07:15:33;;;;;;;4.30;3.60;;;26.90;98.50;;;;;;4992806;28;20536;-68
2023/08/11 07:18:00;;;;;;;6.70;3.90;;;27.80;95.20;;;;;;4993357;28;20452;-68
2023/08/11 07:20:28;;;;;;;5.97;3.90;;;28.90;93.40;;;;;;4992018;28;20959;-67
2023/08/11 07:22:55;;;;;;;5.73;3.80;;;29.80;91.30;;;;;;4987489;28;20525;-65
2023/08/11 07:25:22;;;;;;;5.00;3.63;;;30.90;90.10;;;;;;4985455;28;20447;-68
2023/08/11 07:27:49;;;;;;;5.47;4.03;;;31.50;86.30;;;;;;4989696;28;20490;-66
2023/08/11 07:30:16;;;;;;;4.00;3.60;;;32.10;84.50;;;;;;4993203;28;20560;-68
2023/08/11 07:32:43;;;;;;;4.73;2.97;;;32.80;81.80;;;;;;4990122;28;20486;-67
2023/08/11 07:35:10;;;;;;;8.03;3.30;;;33.00;81.30;;;;;;4982813;28;20440;-66
2023/08/11 07:37:38;;;;;;;4.33;2.60;;;33.40;78.40;;;;;;4989398;28;20521;-67
2023/08/11 07:40:06;;;;;;;5.97;2.67;;;33.40;77.70;;;;;;4986817;28;20971;-68
2023/08/11 07:42:33;;;;;;;4.50;2.87;;;34.00;75.90;;;;;;4987880;28;20448;-67
2023/08/11 07:45:00;;;;;;;4.07;2.60;;;34.10;75.90;;;;;;4989329;28;20931;-67
2023/08/11 07:47:27;;;;;;;5.80;2.13;;;34.00;74.60;;;;;;4989323;28;20492;-67
2023/08/11 07:49:53;;;;;;;4.13;2.80;;;34.00;75.00;;;;;;4984391;28;21012;-66
2023/08/11 07:52:20;;;;;;;8.50;3.17;;;34.30;74.90;;;;;;4991713;28;20448;-68
2023/08/11 07:54:48;;;;;;;3.00;2.47;;;34.20;74.10;;;;;;4993416;28;20453;-68
2023/08/11 07:57:15;;;;;;;2.57;2.13;;;35.00;73.90;;;;;;4984521;28;20441;-69
2023/08/11 07:59:42;;;;;;;5.67;3.90;;;35.00;72.80;;;;;;4982494;28;20465;-66
2023/08/11 08:02:09;;;;;;;2.10;1.67;;;35.10;73.10;;;;;;4979446;28;20436;-69
2023/08/11 08:04:36;;;;;;;1.77;1.40;;;34.90;71.60;;;;;;4988343;28;21124;-67
2023/08/11 08:07:03;;;;;;;6.80;1.70;;;35.30;69.10;;;;;;4985631;28;20560;-69
2023/08/11 08:09:34;;;;;;;3.50;1.70;;;35.40;69.50;;;;;;5000202;28;20469;-82
2023/08/11 08:12:03;;;;;;;2.67;2.07;;;35.50;69.00;;;;;;5009299;28;20445;-81
2023/08/11 08:21:05;;;;;;;3.07;2.10;;;35.60;67.70;;;;;;4953280;28;20452;-81
2023/08/11 08:23:46;;;;;;;4.03;1.93;;;35.30;67.10;;;;;;5013150;28;20452;-83
2023/08/11 08:33:25;;;;;;;2.20;1.60;;;35.30;66.40;;;;;;4940700;29;20462;-81
2023/08/11 08:40:15;;;;;;;;;;;;;;;;;;;;;
2023/08/11 08:49:45;;;;;;;2.83;2.00;;;36.00;64.80;;;;;;4891990;23;20522;-76
2023/08/11 08:52:13;;;;;;;2.20;2.00;;;35.60;65.90;;;;;;5002311;28;20907;-75
2023/08/11 08:54:41;;;;;;;4.00;2.33;;;35.60;66.00;;;;;;5012037;28;20542;-76
2023/08/11 08:57:09;;;;;;;2.10;1.90;;;34.80;66.20;;;;;;5004618;28;20903;-76
2023/08/11 08:59:37;;;;;;;2.80;1.83;;;35.70;65.90;;;;;;5010924;28;20460;-76
2023/08/11 09:02:05;;;;;;;1.87;1.60;;;35.80;66.40;;;;;;5010066;28;20470;-75
2023/08/11 09:04:32;;;;;;;2.63;2.10;;;35.40;64.50;;;;;;5006722;28;20503;-76
2023/08/11 09:07:01;;;;;;;4.07;2.20;;;35.20;65.70;;;;;;5010244;28;20543;-77
2023/08/11 09:09:29;;;;;;;4.37;2.03;;;35.60;65.30;;;;;;5004759;28;20985;-76
2023/08/11 09:11:57;;;;;;;2.07;1.90;;;34.80;65.80;;;;;;5013491;28;20460;-77
2023/08/11 09:14:24;;;;;;;2.57;2.10;;;34.80;66.00;;;;;;5009430;28;20492;-76
2023/08/11 09:16:53;;;;;;;2.97;2.03;;;34.70;67.60;;;;;;5010473;28;20539;-76
2023/08/11 09:19:20;;;;;;;1.70;1.60;;;35.20;67.10;;;;;;5014975;28;20473;-75
2023/08/11 09:21:56;;;;;;;5.80;2.83;;;35.30;65.50;;;;;;5015654;28;20472;-76
2023/08/11 09:24:24;;;;;;;2.90;2.37;;;35.30;66.00;;;;;;5012084;28;20529;-75
2023/08/11 09:26:51;;;;;;;3.40;1.70;;;36.00;64.40;;;;;;5011896;28;20782;-74
2023/08/11 09:29:19;;;;;;;3.17;2.17;;;35.40;63.50;;;;;;5013000;28;20471;-75
2023/08/11 09:31:56;;;;;;;4.00;2.10;;;35.80;65.00;;;;;;5011581;28;20436;-76
2023/08/11 09:34:23;;;;;;;2.10;2.00;;;35.90;64.80;;;;;;5011574;28;20887;-74
2023/08/11 09:36:53;;;;;;;2.30;1.90;;;36.30;63.60;;;;;;5012887;28;20440;-76
2023/08/11 09:39:21;;;;;;;2.13;1.90;;;35.80;65.00;;;;;;5011025;28;20479;-76
2023/08/11 09:41:49;;;;;;;2.27;1.97;;;34.80;65.50;;;;;;5011138;28;20444;-76
2023/08/11 09:44:18;;;;;;;2.60;1.83;;;33.60;66.70;;;;;;5004698;28;20480;-75
2023/08/11 09:46:46;;;;;;;2.73;2.03;;;33.70;69.20;;;;;;5013622;28;20506;-77
2023/08/11 09:49:13;;;;;;;2.80;2.07;;;33.50;69.50;;;;;;5012501;28;20452;-75
2023/08/11 09:51:41;;;;;;;2.80;1.80;;;33.60;69.10;;;;;;5011319;28;20523;-75
2023/08/11 09:54:10;;;;;;;7.97;3.43;;;33.40;69.00;;;;;;5013365;28;20559;-76
2023/08/11 09:56:40;;;;;;;3.57;2.60;;;33.70;69.80;;;;;;5012842;28;20440;-76
2023/08/11 09:59:13;;;;;;;2.67;2.10;;;34.10;69.30;;;;;;5007745;28;20563;-75
2023/08/11 10:01:44;;;;;;;2.80;1.73;;;33.50;68.20;;;;;;5008267;28;20456;-76
2023/08/11 10:04:15;;;;;;;2.63;1.70;;;33.00;69.80;;;;;;5004291;28;20877;-77
2023/08/11 10:06:47;;;;;;;4.93;2.00;;;33.30;69.20;;;;;;5001475;28;20443;-76
2023/08/11 10:09:16;;;;;;;2.10;1.93;;;33.40;70.30;;;;;;5009921;28;20551;-75
2023/08/11 10:11:44;;;;;;;4.10;1.90;;;33.10;69.10;;;;;;5009295;28;20506;-75
2023/08/11 10:14:18;;;;;;;2.23;1.80;;;33.20;69.80;;;;;;5009673;28;20551;-75
2023/08/11 10:16:46;;;;;;;2.10;1.83;;;33.30;69.60;;;;;;5011464;28;20494;-76
2023/08/11 10:19:14;;;;;;;2.53;1.80;;;33.30;70.00;;;;;;5011832;28;20559;-76
2023/08/11 10:21:41;;;;;;;3.83;1.90;;;33.30;69.60;;;;;;5013024;28;20554;-76
2023/08/11 10:24:10;;;;;;;1.97;1.73;;;32.70;71.30;;;;;;5010187;28;20906;-76
2023/08/11 10:26:38;;;;;;;2.63;2.20;;;32.50;72.70;;;;;;5007006;28;20453;-76
2023/08/11 10:29:06;;;;;;;2.30;2.10;;;32.30;72.00;;;;;;5012457;28;20456;-76
2023/08/11 10:31:35;;;;;;;2.03;1.83;;;32.40;73.90;;;;;;5011886;28;20479;-76
2023/08/11 10:34:07;;;;;;;3.07;2.10;;;32.20;72.50;;;;;;5012425;28;20518;-76
2023/08/11 10:36:35;;;;;;;2.20;1.90;;;32.40;72.20;;;;;;5011593;28;20467;-76
2023/08/11 10:39:04;;;;;;;2.13;1.90;;;32.20;71.40;;;;;;5014894;28;20518;-76
2023/08/11 10:41:32;;;;;;;2.13;1.93;;;32.10;72.50;;;;;;5013564;28;20877;-75
2023/08/11 10:43:59;;;;;;;4.40;2.23;;;31.90;72.80;;;;;;5013422;28;20479;-73
2023/08/11 10:46:29;;;;;;;3.23;1.77;;;31.40;74.00;;;;;;5014638;28;20906;-73
2023/08/11 10:49:19;;;;;;;2.70;2.17;;;30.80;75.70;;;;;;5014575;28;20965;-74
2023/08/11 10:51:47;;;;;;;2.87;1.90;;;30.60;78.40;;;;;;5012986;28;20548;-74
2023/08/11 10:54:23;;;;;;;4.00;3.17;;;30.30;77.50;;;;;;5015527;28;20534;-74
2023/08/11 10:56:52;;;;;;;5.57;2.43;;;30.00;78.80;;;;;;5015796;28;20444;-74
2023/08/11 10:59:22;;;;;;;2.67;2.30;;;29.70;79.10;;;;;;5010261;28;20570;-75
2023/08/11 11:01:51;;;;;;;3.43;2.30;;;29.60;79.80;;;;;;5001686;28;20448;-74
2023/08/11 11:04:21;;;;;;;4.00;2.03;;;29.60;80.30;;;;;;5015570;28;20542;-74
2023/08/11 11:06:50;;;;;;;5.63;1.70;;;29.40;79.90;;;;;;5013805;28;20531;-74
2023/08/11 11:09:16;;;;;;;2.13;1.93;;;29.40;80.90;;;;;;5012681;28;20443;-74
2023/08/11 11:11:44;;;;;;;2.40;1.67;;;29.40;81.70;;;;;;5011008;28;20788;-75
2023/08/11 11:14:12;;;;;;;3.50;1.80;;;29.40;82.70;;;;;;5005833;28;21002;-74
2023/08/11 11:16:40;;;;;;;2.63;2.10;;;29.40;81.60;;;;;;5011431;28;20451;-74
2023/08/11 11:19:09;;;;;;;2.30;2.10;;;29.10;79.70;;;;;;5008617;28;20894;-74
2023/08/11 11:21:40;;;;;;;5.80;2.60;;;29.10;80.80;;;;;;5012141;28;20527;-74
2023/08/11 11:24:08;;;;;;;2.60;2.30;;;28.90;81.30;;;;;;5011591;28;20882;-74
2023/08/11 11:26:35;;;;;;;1.97;1.87;;;28.80;82.60;;;;;;5004484;28;20483;-74
2023/08/11 11:29:04;;;;;;;5.07;2.10;;;28.70;82.40;;;;;;5009975;28;20438;-74
2023/08/11 11:31:33;;;;;;;5.60;2.57;;;28.60;82.90;;;;;;5006748;28;20476;-74
2023/08/11 11:34:01;;;;;;;2.23;1.83;;;28.60;83.40;;;;;;5009282;28;21035;-74
2023/08/11 11:36:28;;;;;;;2.30;1.93;;;28.80;82.30;;;;;;5011730;28;20450;-74
2023/08/11 11:38:57;;;;;;;5.10;2.17;;;28.80;83.20;;;;;;5006620;28;20477;-74
2023/08/11 11:41:24;;;;;;;4.03;2.60;;;28.90;83.00;;;;;;5013675;28;20509;-73
2023/08/11 11:43:51;;;;;;;2.60;1.83;;;28.90;83.00;;;;;;5014660;28;20970;-74
2023/08/11 11:46:20;;;;;;;1.93;1.60;;;28.90;83.10;;;;;;5007331;28;20479;-75
2023/08/11 11:48:56;;;;;;;3.27;2.13;;;28.80;82.80;;;;;;5014237;28;20927;-73
2023/08/11 11:51:25;;;;;;;2.30;1.60;;;28.80;83.70;;;;;;5004550;28;20470;-75
2023/08/11 11:53:58;;;;;;;2.87;2.00;;;28.80;83.50;;;;;;5015051;28;20506;-73
2023/08/11 11:56:41;;;;;;;1.70;1.43;;;28.90;83.60;;;;;;5015470;28;20494;-73
2023/08/11 11:59:08;;;;;;;2.27;1.90;;;28.80;83.50;;;;;;5006389;28;20582;-74
2023/08/11 12:01:38;;;;;;;4.13;1.70;;;28.60;83.70;;;;;;5014036;28;20550;-74
2023/08/11 12:04:08;;;;;;;3.87;1.83;;;28.60;83.60;;;;;;5016350;28;20534;-73
2023/08/11 12:06:36;;;;;;;2.67;2.27;;;28.60;84.80;;;;;;5016423;28;20448;-74
2023/08/11 12:09:09;;;;;;;3.17;1.70;;;28.60;84.10;;;;;;5016389;28;20500;-74
2023/08/11 12:11:36;;;;;;;3.40;1.60;;;28.60;84.30;;;;;;5014239;28;20794;-74
2023/08/11 12:14:05;;;;;;;2.50;1.67;;;28.80;84.80;;;;;;5014576;28;20456;-74
2023/08/11 12:16:32;;;;;;;3.17;2.40;;;28.50;84.40;;;;;;5014635;28;20448;-74
2023/08/11 12:19:01;;;;;;;4.20;1.97;;;28.60;84.60;;;;;;5011745;28;20539;-74
2023/08/11 12:21:28;;;;;;;1.87;1.67;;;28.60;83.90;;;;;;5013827;28;20502;-73
2023/08/11 12:23:56;;;;;;;2.50;1.60;;;28.50;84.00;;;;;;5014286;28;20470;-74
2023/08/11 12:26:24;;;;;;;2.70;1.93;;;28.30;85.10;;;;;;5014467;28;20463;-75
2023/08/11 12:28:51;;;;;;;9.60;1.70;;;28.30;86.00;;;;;;5015262;28;20503;-73
2023/08/11 12:31:18;;;;;;;2.70;1.50;;;28.40;85.90;;;;;;5006446;28;20477;-75
2023/08/11 12:33:45;;;;;;;4.07;1.70;;;28.30;85.50;;;;;;5014909;28;20491;-74
2023/08/11 12:36:12;;;;;;;1.87;1.33;;;28.30;86.30;;;;;;5004555;28;20490;-74
2023/08/11 12:38:39;;;;;;;2.93;2.00;;;28.40;84.30;;;;;;5012193;28;20475;-75
2023/08/11 12:41:06;;;;;;;5.73;1.77;;;28.30;84.90;;;;;;5013788;28;20534;-75
2023/08/11 12:43:34;;;;;;;1.77;1.50;;;28.30;84.20;;;;;;5013946;28;20871;-75
2023/08/11 12:46:01;;;;;;;3.50;1.70;;;28.20;84.60;;;;;;5014453;28;20531;-74
2023/08/11 12:48:32;;;;;;;2.20;1.33;;;27.80;85.30;;;;;;5010230;28;20469;-73
2023/08/11 12:50:59;;;;;;;2.70;1.90;;;27.80;86.30;;;;;;5013662;28;20514;-75
2023/08/11 12:53:26;;;;;;;2.60;1.60;;;27.90;86.70;;;;;;5014568;28;20467;-73
2023/08/11 12:55:53;;;;;;;4.90;2.10;;;28.00;86.40;;;;;;5013525;28;20475;-75
2023/08/11 12:58:20;;;;;;;8.90;1.80;;;28.10;86.70;;;;;;5012167;28;20575;-74
2023/08/11 13:00:49;;;;;;;5.70;2.13;;;28.10;86.20;;;;;;5002823;28;20536;-75
2023/08/11 13:03:16;;;;;;;4.60;1.87;;;28.30;87.10;;;;;;5008835;28;20511;-76
2023/08/11 13:05:43;;;;;;;2.57;2.17;;;28.30;86.80;;;;;;5013073;28;20527;-73
2023/08/11 13:08:10;;;;;;;1.70;1.30;;;28.40;85.90;;;;;;5004009;28;20452;-73
2023/08/11 13:10:37;;;;;;;2.90;1.50;;;28.30;85.90;;;;;;5008198;28;20428;-74
2023/08/11 13:13:04;;;;;;;2.03;1.67;;;28.40;86.10;;;;;;5007082;28;20504;-74
2023/08/11 13:15:31;;;;;;;5.67;5.10;;;28.40;86.20;;;;;;5012688;28;20448;-73
2023/08/11 13:17:59;;;;;;;2.13;1.60;;;28.40;86.70;;;;;;5007426;28;20919;-73
2023/08/11 13:20:26;;;;;;;1.70;1.50;;;28.40;86.20;;;;;;5006896;28;20583;-73
2023/08/11 13:22:53;;;;;;;4.73;1.97;;;28.60;86.10;;;;;;5011733;28;20467;-73
2023/08/11 13:25:20;;;;;;;2.17;1.83;;;28.50;86.80;;;;;;5013600;28;20911;-74
2023/08/11 13:27:47;;;;;;;3.47;1.90;;;28.30;86.30;;;;;;5012050;28;20527;-74
2023/08/11 13:30:14;;;;;;;2.00;1.77;;;28.30;87.20;;;;;;5004704;28;20452;-74
2023/08/11 13:32:46;;;;;;;4.70;1.73;;;28.20;88.30;;;;;;5012930;28;20447;-73
2023/08/11 13:35:14;;;;;;;2.37;1.90;;;28.20;87.40;;;;;;5012662;28;20475;-74
2023/08/11 13:37:41;;;;;;;3.77;2.07;;;28.20;88.00;;;;;;5012217;28;20915;-73
2023/08/11 13:40:10;;;;;;;2.40;1.80;;;28.30;87.60;;;;;;5004427;28;20526;-74
2023/08/11 13:42:37;;;;;;;1.80;1.50;;;28.40;87.80;;;;;;5010482;28;20449;-73
2023/08/11 13:45:05;;;;;;;2.33;1.80;;;28.50;87.30;;;;;;5008890;28;20454;-74
2023/08/11 13:47:32;;;;;;;3.03;2.13;;;28.60;86.50;;;;;;5007157;28;20499;-74
2023/08/11 13:49:59;;;;;;;3.00;1.80;;;28.60;87.00;;;;;;5009331;28;20462;-74
2023/08/11 13:52:27;;;;;;;2.07;1.87;;;28.60;87.40;;;;;;5003700;28;20499;-73
2023/08/11 13:54:58;;;;;;;2.77;2.00;;;28.60;86.90;;;;;;5009941;28;20475;-74
2023/08/11 13:57:28;;;;;;;2.50;2.00;;;28.70;87.30;;;;;;5013452;28;20454;-74
2023/08/11 13:59:56;;;;;;;4.03;2.23;;;28.80;87.10;;;;;;5012424;28;20511;-75
2023/08/11 14:02:23;;;;;;;4.00;2.40;;;29.00;87.30;;;;;;5012942;28;20527;-74
2023/08/11 14:04:51;;;;;;;5.50;1.87;;;29.00;86.90;;;;;;5008038;28;20483;-73
2023/08/11 14:07:18;;;;;;;4.63;1.97;;;28.90;85.90;;;;;;5003512;28;20452;-73
2023/08/11 14:09:47;;;;;;;2.30;1.87;;;28.70;86.80;;;;;;5006389;28;20873;-74
2023/08/11 14:12:15;;;;;;;4.03;2.20;;;28.60;87.70;;;;;;5006669;28;20499;-74
2023/08/11 14:14:42;;;;;;;5.40;2.47;;;28.60;88.20;;;;;;5008738;28;20518;-74
2023/08/11 14:17:09;;;;;;;1.87;1.77;;;28.70;87.60;;;;;;5010802;28;20878;-74
2023/08/11 14:19:36;;;;;;;2.97;2.30;;;28.70;87.50;;;;;;5010874;28;20577;-74
2023/08/11 14:22:02;;;;;;;3.03;2.33;;;28.70;87.60;;;;;;5010931;28;20452;-74
2023/08/11 14:24:29;;;;;;;2.37;2.17;;;28.60;87.70;;;;;;5005598;28;20907;-74
2023/08/11 14:27:01;;;;;;;3.00;2.37;;;28.50;87.70;;;;;;5003365;28;20449;-74
2023/08/11 14:29:28;;;;;;;4.33;3.00;;;28.40;88.00;;;;;;5009415;28;20464;-73
2023/08/11 14:31:55;;;;;;;2.70;2.10;;;28.40;88.20;;;;;;5004554;28;20452;-74
2023/08/11 14:34:22;;;;;;;3.00;2.70;;;28.50;88.00;;;;;;5009958;28;20482;-75
2023/08/11 14:36:49;;;;;;;3.63;2.67;;;28.60;87.90;;;;;;5012466;28;20452;-75
2023/08/11 14:39:16;;;;;;;2.70;2.50;;;28.60;88.20;;;;;;5012059;28;20494;-73
2023/08/11 14:41:46;;;;;;;3.70;2.70;;;28.70;88.20;;;;;;5010867;28;20443;-74
2023/08/11 14:44:15;;;;;;;3.70;2.60;;;28.80;88.20;;;;;;5002376;28;20468;-75
2023/08/11 14:46:43;;;;;;;3.23;2.67;;;28.80;87.70;;;;;;5013091;28;20527;-74
2023/08/11 14:49:10;;;;;;;5.50;3.07;;;28.80;88.10;;;;;;5005101;28;20453;-74
2023/08/11 14:51:37;;;;;;;4.73;2.37;;;28.80;88.40;;;;;;5006316;28;20495;-73
2023/08/11 14:54:05;;;;;;;4.90;2.23;;;28.60;88.00;;;;;;5011819;28;20506;-74
2023/08/11 14:56:32;;;;;;;3.40;2.20;;;28.70;88.00;;;;;;5010630;28;20846;-73
2023/08/11 14:59:02;;;;;;;4.63;3.50;;;28.80;87.50;;;;;;5012352;28;20558;-74
2023/08/11 15:01:30;;;;;;;5.43;2.83;;;28.80;87.60;;;;;;5009926;28;20539;-73
2023/08/11 15:03:57;;;;;;;6.63;3.00;;;28.80;87.60;;;;;;5009105;28;20479;-74
2023/08/11 15:06:24;;;;;;;8.23;2.83;;;28.80;87.40;;;;;;5004124;28;20866;-74
2023/08/11 15:08:51;;;;;;;3.13;2.73;;;28.90;88.20;;;;;;5014485;28;20523;-75
2023/08/11 15:11:18;;;;;;;4.57;3.57;;;28.90;88.30;;;;;;5015443;28;20470;-74
2023/08/11 15:13:45;;;;;;;3.53;2.60;;;28.90;87.20;;;;;;5013921;28;20470;-74
2023/08/11 15:16:13;;;;;;;3.20;2.63;;;28.90;86.90;;;;;;5015193;28;20438;-73
2023/08/11 15:18:42;;;;;;;6.23;2.63;;;28.90;87.00;;;;;;5006177;28;20488;-73
2023/08/11 15:21:09;;;;;;;6.20;2.90;;;28.90;87.10;;;;;;5014711;28;20479;-73
2023/08/11 15:23:36;;;;;;;5.03;2.33;;;28.90;87.00;;;;;;5010325;28;20480;-75
2023/08/11 15:26:03;;;;;;;3.07;2.77;;;29.00;86.70;;;;;;5011607;28;20475;-75
2023/08/11 15:28:32;;;;;;;5.37;3.50;;;29.10;86.80;;;;;;5010667;28;20440;-74
2023/08/11 15:31:00;;;;;;;3.20;2.90;;;29.00;86.40;;;;;;5014922;28;20439;-74
2023/08/11 15:33:27;;;;;;;3.33;3.00;;;28.90;86.70;;;;;;5012011;28;20463;-74
2023/08/11 15:35:55;;;;;;;4.40;2.97;;;28.90;87.10;;;;;;5012114;28;20523;-73
2023/08/11 15:38:30;;;;;;;5.13;3.13;;;29.00;87.40;;;;;;5016324;28;20440;-73
2023/08/11 15:40:57;;;;;;;4.37;2.63;;;28.90;88.30;;;;;;5014515;28;20514;-73
2023/08/11 15:43:25;;;;;;;2.97;2.67;;;28.80;87.30;;;;;;5015033;28;20495;-73
2023/08/11 15:45:52;;;;;;;4.80;3.17;;;28.80;87.10;;;;;;5015806;28;20539;-75
2023/08/11 15:48:19;;;;;;;3.90;2.50;;;28.90;86.80;;;;;;5014575;28;20453;-73
2023/08/11 15:51:30;;;;;;;4.53;2.87;;;28.80;87.00;;;;;;5015383;28;20996;-75
2023/08/11 15:54:31;;;;;;;4.20;3.20;;;28.80;87.00;;;;;;5002721;28;20993;-73
2023/08/11 15:56:58;;;;;;;4.43;3.40;;;28.90;85.10;;;;;;5015781;28;20876;-74
2023/08/11 15:59:25;;;;;;;4.17;2.80;;;29.00;83.70;;;;;;5014931;28;20484;-74
2023/08/11 16:02:27;;;;;;;3.50;2.67;;;28.90;83.30;;;;;;5014773;28;20854;-74
2023/08/11 16:04:54;;;;;;;3.40;2.97;;;28.80;83.30;;;;;;5015274;28;20468;-73
2023/08/11 16:07:21;;;;;;;3.67;3.27;;;28.70;83.40;;;;;;5015668;28;20467;-75
2023/08/11 16:10:08;;;;;;;4.60;2.67;;;28.80;83.20;;;;;;5014589;28;20973;-74
2023/08/11 16:12:35;;;;;;;6.00;3.60;;;28.80;83.20;;;;;;5013410;28;20471;-74
2023/08/11 16:15:02;;;;;;;4.23;3.10;;;28.70;83.60;;;;;;5014782;28;20992;-74
2023/08/11 16:17:37;;;;;;;4.10;3.07;;;28.70;83.40;;;;;;5012448;28;20441;-75
2023/08/11 16:20:05;;;;;;;3.87;2.83;;;28.70;83.40;;;;;;5002468;28;21020;-74
2023/08/11 16:22:33;;;;;;;4.07;3.23;;;28.80;83.70;;;;;;5002646;28;20440;-75
2023/08/11 16:25:00;;;;;;;5.20;3.00;;;28.80;83.80;;;;;;5011174;28;20473;-74
2023/08/11 16:27:33;;;;;;;3.73;3.07;;;28.80;83.40;;;;;;5008986;28;20551;-74
2023/08/11 16:30:01;;;;;;;4.00;3.20;;;28.80;84.40;;;;;;5012214;28;20452;-74
2023/08/11 16:32:27;;;;;;;4.70;3.37;;;28.80;84.60;;;;;;5013823;28;20480;-73
2023/08/11 16:34:55;;;;;;;4.90;3.23;;;28.70;84.60;;;;;;5010840;28;20472;-74
2023/08/11 16:37:23;;;;;;;7.93;3.33;;;28.70;84.30;;;;;;5013796;28;20451;-74
2023/08/11 16:39:50;;;;;;;4.23;3.30;;;28.70;84.60;;;;;;5013502;28;20479;-73
2023/08/11 16:42:20;;;;;;;9.30;3.43;;;28.80;84.30;;;;;;5012932;28;20452;-74
2023/08/11 16:44:48;;;;;;;5.20;3.60;;;28.80;84.50;;;;;;5014029;28;20474;-73
2023/08/11 16:47:15;;;;;;;5.77;3.50;;;28.90;84.70;;;;;;5014305;28;20440;-73
2023/08/11 16:49:43;;;;;;;4.97;3.63;;;29.00;84.70;;;;;;5013630;28;20530;-75
2023/08/11 16:52:10;;;;;;;4.67;3.77;;;29.00;84.90;;;;;;5008209;28;20463;-74
2023/08/11 16:54:37;;;;;;;5.10;3.70;;;29.10;84.40;;;;;;5009532;28;20583;-74
2023/08/11 16:57:04;;;;;;;3.97;3.60;;;29.20;84.00;;;;;;5012255;28;20463;-74
2023/08/11 16:59:32;;;;;;;3.50;3.20;;;29.10;83.90;;;;;;5012966;28;20478;-74
2023/08/11 17:02:00;;;;;;;6.63;3.97;;;29.00;83.90;;;;;;5012246;28;20441;-73
2023/08/11 17:04:27;;;;;;;8.43;3.93;;;29.00;84.50;;;;;;5013106;28;20507;-73
2023/08/11 17:06:54;;;;;;;6.17;3.87;;;28.90;84.00;;;;;;5011969;28;20455;-74
2023/08/11 17:09:21;;;;;;;6.00;4.10;;;28.90;83.60;;;;;;5013482;28;20523;-73
2023/08/11 17:11:48;;;;;;;6.37;4.93;;;28.70;83.40;;;;;;5012928;28;20487;-74
2023/08/11 17:14:17;;;;;;;8.30;3.80;;;28.50;84.60;;;;;;5013090;28;20488;-72
2023/08/11 17:16:43;;;;;;;3.50;2.90;;;28.40;84.50;;;;;;5014526;28;20444;-73
2023/08/11 17:19:12;;;;;;;5.20;4.70;;;28.30;83.80;;;;;;5009012;28;20761;-72
2023/08/11 17:21:39;;;;;;;5.77;3.40;;;28.10;84.00;;;;;;5006720;28;20484;-74
2023/08/11 17:24:07;;;;;;;4.83;4.17;;;28.00;84.50;;;;;;5007783;28;20469;-73
2023/08/11 17:26:38;;;;;;;4.70;3.63;;;28.10;84.90;;;;;;5006845;28;20440;-73
2023/08/11 17:29:06;;;;;;;4.77;4.10;;;28.00;84.70;;;;;;5007004;28;20501;-74
2023/08/11 17:31:33;;;;;;;5.43;4.30;;;28.00;84.80;;;;;;5005803;28;20440;-74
2023/08/11 17:34:00;;;;;;;4.17;3.77;;;28.00;84.70;;;;;;5004091;28;20499;-73
2023/08/11 17:36:28;;;;;;;4.47;3.50;;;28.00;85.20;;;;;;5007979;28;20539;-74
2023/08/11 17:38:56;;;;;;;4.20;3.40;;;27.90;85.00;;;;;;5003231;28;20884;-74
2023/08/11 17:41:24;;;;;;;6.37;4.03;;;28.00;85.30;;;;;;5008175;28;20498;-72
2023/08/11 17:43:54;;;;;;;7.63;4.13;;;27.90;85.00;;;;;;5010086;28;20470;-74
2023/08/11 17:46:21;;;;;;;4.33;3.93;;;28.00;85.30;;;;;;5012844;28;20448;-74
2023/08/11 17:48:48;;;;;;;7.27;4.67;;;27.90;85.60;;;;;;5007022;28;20472;-74
2023/08/11 17:51:16;;;;;;;8.80;4.40;;;27.90;86.30;;;;;;5004821;28;20519;-75
2023/08/11 17:53:44;;;;;;;5.93;4.10;;;27.70;85.70;;;;;;5007782;28;20507;-75
2023/08/11 17:56:11;;;;;;;6.20;4.10;;;27.90;86.50;;;;;;5013444;28;20927;-74
2023/08/11 17:58:38;;;;;;;6.50;4.10;;;27.90;86.60;;;;;;5012577;28;20527;-75
2023/08/11 18:01:05;;;;;;;5.70;4.60;;;27.90;86.50;;;;;;5012006;28;20524;-74
2023/08/11 18:03:32;;;;;;;6.20;4.67;;;27.80;87.50;;;;;;5010355;28;20542;-74
2023/08/11 18:05:59;;;;;;;4.27;3.87;;;27.90;87.10;;;;;;5012725;28;20534;-74
2023/08/11 18:08:26;;;;;;;6.97;5.40;;;27.90;87.10;;;;;;5012186;28;20914;-74
2023/08/11 18:10:55;;;;;;;6.43;4.80;;;27.80;87.60;;;;;;5007736;28;20857;-75
2023/08/11 18:13:22;;;;;;;7.77;4.50;;;27.80;88.20;;;;;;5009858;28;20981;-73
2023/08/11 18:15:49;;;;;;;6.20;5.00;;;27.70;88.20;;;;;;5008956;28;20863;-74
2023/08/11 18:18:16;;;;;;;6.40;4.63;;;27.70;87.30;;;;;;5010695;28;20539;-74
2023/08/11 18:20:43;;;;;;;5.20;4.10;;;27.60;88.30;;;;;;5009216;28;20558;-74